EKSB/SGD METAR and TAF weather

Enter ICAO airport designator
Station Type Date Time Source
EKSB METAR 2018/01/24 07:20 UTC NOAA

EKSB 240720Z 22010KT 180V250 6000 OVC007 08/08 Q1009


Station Type Date Time Source
EKSB Decoded METAR 2018/01/24 07:20 UTC NOAA

Soenderborg Lufthavn, Denmark (EKSB) 54-58N 009-47E 14M
Jan 24, 2018 - 02:20 AM EST / 2018.01.24 0720 UTC
Wind: from the SW (220 degrees) at 12 MPH (10 KT) (direction variable):0
Visibility: 3 mile(s):0
Sky conditions: overcast
Temperature: 46 F (8 C)
Dew Point: 46 F (8 C)
Relative Humidity: 100%
Pressure (altimeter): 29.80 in. Hg (1009 hPa)
ob: EKSB 240720Z 22010KT 180V250 6000 OVC007 08/08 Q1009
cycle: 7

Station Type Date Time Source
EKSB TAF 2016/01/27 09:03 UTC NOAA

TAF TAF EKSB 270856Z 2709/2721 23022KT 5000 -RA BR BKN008
TEMPO 2709/2721 24025G40KT 2000 RADZ BKN004


Example: see airport list